Time;durP1;ratioP1;P1;durP2;ratioP2;P2;SDS_P1;SDS_P2;PMS_P1;PMS_P2;Temp;Humidity;BMP_temperature;BMP_pressure;BME280_temperature;BME280_humidity;BME280_pressure;Samples;Min_cycle;Max_cycle;Signal;HPM_P1;HPM_P2
2022/10/03 00:01:32;;;;;;;39.45;17.02;;;;;;;10.90;100.00;102085.13;5002248;28;20470;-76
2022/10/03 00:04:30;;;;;;;42.58;17.13;;;;;;;10.84;100.00;102097.69;5000634;28;20115;-74
2022/10/03 00:07:15;;;;;;;39.83;15.70;;;;;;;10.71;100.00;102094.28;5002255;28;20049;-76
2022/10/03 00:10:13;;;;;;;30.92;13.02;;;;;;;10.70;100.00;102098.19;4999898;28;20053;-76
2022/10/03 00:12:46;;;;;;;32.25;13.82;;;;;;;10.65;100.00;102103.22;5000110;28;20529;-75
2022/10/03 00:15:25;;;;;;;21.50;7.63;;;;;;;10.66;100.00;102099.31;5006654;28;20049;-76
2022/10/03 00:18:09;;;;;;;28.40;11.10;;;;;;;10.64;100.00;102102.44;5005135;28;20069;-75
2022/10/03 00:20:54;;;;;;;20.40;8.18;;;;;;;10.61;100.00;102105.91;4999013;28;20556;-76
2022/10/03 00:23:34;;;;;;;19.55;7.05;;;;;;;10.60;100.00;102103.50;4997270;28;20799;-77
2022/10/03 00:26:41;;;;;;;26.02;6.45;;;;;;;10.60;100.00;102106.28;4998505;28;20053;-75
2022/10/03 00:29:07;;;;;;;;;;;;;;;10.54;100.00;102117.63;5006333;28;20053;-76
2022/10/03 00:31:49;;;;;;;23.92;8.95;;;;;;;10.50;100.00;102118.75;5002434;28;20838;-74
2022/10/03 00:34:35;;;;;;;22.15;7.32;;;;;;;10.47;100.00;102119.47;5001745;28;20057;-74
2022/10/03 00:37:07;;;;;;;22.48;6.80;;;;;;;10.43;100.00;102119.38;5004387;28;20060;-76
2022/10/03 00:39:52;;;;;;;17.85;6.32;;;;;;;10.44;100.00;102120.19;5000641;28;20053;-76
2022/10/03 00:42:32;;;;;;;25.80;6.65;;;;;;;10.45;100.00;102124.53;5006588;28;20782;-77
2022/10/03 00:45:11;;;;;;;18.65;6.45;;;;;;;10.43;100.00;102126.91;5003926;28;20119;-73
2022/10/03 00:48:00;;;;;;;23.02;6.90;;;;;;;10.41;100.00;102124.50;5004288;28;20336;-76
2022/10/03 00:50:50;;;;;;;21.52;7.65;;;;;;;10.32;100.00;102140.47;5003019;28;20065;-76
2022/10/03 00:53:32;;;;;;;19.67;7.18;;;;;;;10.26;100.00;102135.59;5001663;28;20131;-79
2022/10/03 00:56:20;;;;;;;19.63;8.40;;;;;;;10.23;100.00;102139.09;5000682;28;20061;-75
2022/10/03 00:59:05;;;;;;;18.20;7.68;;;;;;;10.19;100.00;102139.00;5007308;28;20052;-76
2022/10/03 01:01:46;;;;;;;19.25;7.28;;;;;;;10.22;100.00;102138.28;5003478;28;20088;-76
2022/10/03 01:04:40;;;;;;;26.15;9.70;;;;;;;10.18;100.00;102129.09;5006949;28;20053;-78
2022/10/03 01:07:15;;;;;;;23.35;7.35;;;;;;;10.26;100.00;102141.91;5005402;28;20052;-75
2022/10/03 01:09:53;;;;;;;20.85;7.57;;;;;;;10.23;100.00;102139.09;5005546;28;20248;-77
2022/10/03 01:12:38;;;;;;;19.88;7.28;;;;;;;10.24;100.00;102144.25;5004056;28;20056;-77
2022/10/03 01:15:09;;;;;;;22.08;8.45;;;;;;;10.25;100.00;102147.81;5004908;28;20099;-77
2022/10/03 01:18:09;;;;;;;31.17;14.63;;;;;;;10.20;100.00;102145.34;5005956;28;20128;-77
2022/10/03 01:21:09;;;;;;;36.58;16.08;;;;;;;10.17;100.00;102146.84;5015412;28;20049;-76
2022/10/03 01:23:47;;;;;;;28.23;11.35;;;;;;;10.19;100.00;102155.59;5028239;28;20111;-76
2022/10/03 01:26:43;;;;;;;34.08;16.77;;;;;;;10.10;100.00;102143.91;5026084;28;20489;-76
2022/10/03 01:32:30;;;;;;;24.80;10.50;;;;;;;10.12;100.00;102147.13;5026302;28;20064;-76
2022/10/03 01:35:19;;;;;;;29.97;10.53;;;;;;;10.13;100.00;102145.19;5030508;28;20065;-74
2022/10/03 01:38:13;;;;;;;24.85;11.48;;;;;;;10.12;100.00;102155.44;5023295;28;20049;-75
2022/10/03 01:40:47;;;;;;;26.75;11.07;;;;;;;10.10;100.00;102152.22;5029100;28;20044;-76
2022/10/03 01:43:13;;;;;;;24.58;11.65;;;;;;;10.07;100.00;102155.72;5029881;28;20052;-75
2022/10/03 01:45:47;;;;;;;29.02;11.60;;;;;;;10.04;100.00;102153.63;5030415;28;20103;-75
2022/10/03 01:48:34;;;;;;;23.67;9.82;;;;;;;10.03;100.00;102165.84;5030202;28;20111;-77
2022/10/03 01:51:07;;;;;;;30.52;12.48;;;;;;;10.00;100.00;102163.78;4985520;28;20095;-76
2022/10/03 01:53:44;;;;;;;29.90;11.13;;;;;;;9.96;100.00;102162.91;5028885;28;20720;-77
2022/10/03 01:56:19;;;;;;;21.92;10.40;;;;;;;9.95;100.00;102169.59;5030827;28;20080;-75
2022/10/03 01:59:05;;;;;;;22.27;11.00;;;;;;;9.93;100.00;102168.38;5028961;28;20045;-77
2022/10/03 02:01:54;;;;;;;;;;;;;;;9.92;100.00;102175.84;5020815;28;20058;-76
2022/10/03 02:04:33;;;;;;;33.13;13.85;;;;;;;9.91;100.00;102177.00;5026578;28;20460;-75
2022/10/03 02:07:06;;;;;;;26.88;14.98;;;;;;;9.93;100.00;102179.44;5028559;28;20053;-74
2022/10/03 02:10:08;;;;;;;29.60;11.88;;;;;;;9.89;100.00;102184.84;5028560;28;20050;-76
2022/10/03 02:12:57;;;;;;;22.75;9.02;;;;;;;9.86;100.00;102180.03;5027369;28;20103;-74
2022/10/03 02:15:33;;;;;;;22.38;10.20;;;;;;;9.86;100.00;102182.78;5019146;28;20534;-74
2022/10/03 02:18:12;;;;;;;27.33;12.23;;;;;;;9.83;100.00;102191.03;5022964;28;20045;-75
2022/10/03 02:20:44;;;;;;;26.88;10.18;;;;;;;9.77;100.00;102192.44;5029445;28;20430;-75
2022/10/03 02:23:30;;;;;;;23.73;9.48;;;;;;;9.71;100.00;102186.38;5018186;28;20422;-75
2022/10/03 02:26:42;;;;;;;27.20;10.38;;;;;;;9.72;100.00;102193.50;5029723;28;20207;-74
2022/10/03 02:29:42;;;;;;;25.40;10.32;;;;;;;9.73;100.00;102191.56;5024556;28;20118;-75
2022/10/03 02:32:09;;;;;;;22.40;9.18;;;;;;;9.73;100.00;102197.91;5022488;28;20045;-76
2022/10/03 02:34:57;;;;;;;23.73;8.88;;;;;;;9.71;100.00;102194.66;5028250;28;20053;-74
2022/10/03 02:37:57;;;;;;;25.17;7.15;;;;;;;9.69;100.00;102198.97;5029712;28;20414;-74
2022/10/03 02:40:36;;;;;;;17.00;6.75;;;;;;;9.68;100.00;102200.91;5023300;28;20487;-73
2022/10/03 02:43:24;;;;;;;19.50;8.52;;;;;;;9.66;100.00;102191.38;5027291;28;20057;-74
2022/10/03 02:46:10;;;;;;;22.08;8.30;;;;;;;9.66;100.00;102197.69;5026796;28;20053;-76
2022/10/03 02:48:37;;;;;;;21.35;7.68;;;;;;;9.64;100.00;102197.25;5017048;28;20057;-76
2022/10/03 02:51:19;;;;;;;18.80;6.88;;;;;;;9.58;100.00;102195.91;5026000;28;20457;-74
2022/10/03 02:54:02;;;;;;;19.55;7.20;;;;;;;9.48;100.00;102203.91;5029183;28;20057;-77
2022/10/03 02:57:06;;;;;;;21.77;6.88;;;;;;;9.49;100.00;102198.03;5027428;28;20057;-76
2022/10/03 02:59:51;;;;;;;19.65;7.80;;;;;;;9.47;100.00;102208.66;5026503;28;20046;-76
2022/10/03 03:02:21;;;;;;;;;;;;;;;9.44;100.00;102206.59;5026944;28;20095;-74
2022/10/03 03:05:21;;;;;;;19.50;7.35;;;;;;;9.42;100.00;102210.88;5027087;28;19972;-76
2022/10/03 03:08:08;;;;;;;24.60;8.90;;;;;;;9.45;100.00;102210.94;5027217;28;20746;-75
2022/10/03 03:10:44;;;;;;;21.33;7.75;;;;;;;9.43;100.00;102207.75;5028785;28;20041;-76
2022/10/03 03:13:29;;;;;;;20.85;7.82;;;;;;;9.43;100.00;102213.28;5027577;28;20049;-76
2022/10/03 03:16:23;;;;;;;23.73;9.82;;;;;;;9.46;100.00;102212.56;5021904;28;20053;-75
2022/10/03 03:19:09;;;;;;;19.00;7.25;;;;;;;9.41;100.00;102210.06;5021369;28;20445;-75
2022/10/03 03:21:35;;;;;;;22.00;6.95;;;;;;;9.40;100.00;102213.97;5028060;28;20053;-73
2022/10/03 03:24:11;;;;;;;19.95;7.57;;;;;;;9.40;100.00;102204.88;5028547;28;20787;-77
2022/10/03 03:26:54;;;;;;;24.23;7.15;;;;;;;9.37;100.00;102216.63;5026704;28;20784;-76
2022/10/03 03:29:23;;;;;;;17.05;6.63;;;;;;;9.38;100.00;102215.50;5026624;28;20053;-75
2022/10/03 03:32:18;;;;;;;21.00;7.20;;;;;;;9.36;100.00;102220.56;5016860;28;20344;-76
2022/10/03 03:34:58;;;;;;;26.55;8.07;;;;;;;9.35;100.00;102216.19;5020927;28;20060;-76
2022/10/03 03:37:30;;;;;;;20.48;6.68;;;;;;;9.33;100.00;102215.72;5028646;28;20103;-76
2022/10/03 03:40:39;;;;;;;18.35;7.05;;;;;;;9.27;100.00;102211.59;5027834;28;20049;-75
2022/10/03 03:43:25;;;;;;;16.23;6.80;;;;;;;9.22;100.00;102215.41;5017866;28;20099;-74
2022/10/03 03:46:28;;;;;;;21.60;7.53;;;;;;;9.27;100.00;102222.66;5024215;28;20060;-77
2022/10/03 03:49:11;;;;;;;19.63;7.50;;;;;;;9.29;100.00;102215.66;5024626;28;20064;-75
2022/10/03 03:51:49;;;;;;;21.88;7.88;;;;;;;9.34;100.00;102214.56;5027297;28;20514;-76
2022/10/03 03:54:31;;;;;;;21.30;7.85;;;;;;;9.35;100.00;102213.44;5025508;28;20061;-75
2022/10/03 03:57:04;;;;;;;27.65;10.43;;;;;;;9.32;100.00;102214.13;5027875;28;20050;-75
2022/10/03 03:59:58;;;;;;;16.30;6.53;;;;;;;9.26;100.00;102219.13;5022695;28;20053;-75
2022/10/03 04:02:43;;;;;;;21.95;8.20;;;;;;;9.27;100.00;102214.38;5019522;28;20103;-76
2022/10/03 04:05:14;;;;;;;24.10;8.05;;;;;;;9.21;100.00;102215.81;5027789;28;21515;-75
2022/10/03 04:08:11;;;;;;;17.33;6.97;;;;;;;9.18;100.00;102220.06;5028298;28;20103;-75
2022/10/03 04:10:50;;;;;;;19.77;7.28;;;;;;;9.22;100.00;102226.47;5027776;28;20049;-76
2022/10/03 04:13:27;;;;;;;21.88;8.05;;;;;;;9.28;100.00;102229.81;5025219;28;20056;-74
2022/10/03 04:16:12;;;;;;;20.08;8.52;;;;;;;9.30;100.00;102235.78;5021024;28;20119;-76
2022/10/03 04:19:06;;;;;;;26.77;7.67;;;;;;;9.31;100.00;102235.41;5021603;28;20399;-76
2022/10/03 04:21:46;;;;;;;23.02;7.65;;;;;;;9.32;100.00;102236.22;5023279;28;20049;-75
2022/10/03 04:24:43;;;;;;;20.20;7.38;;;;;;;9.32;100.00;102241.75;5027515;28;20049;-76
2022/10/03 04:27:39;;;;;;;26.52;8.35;;;;;;;9.36;100.00;102232.41;5026654;28;20073;-75
2022/10/03 04:30:17;;;;;;;20.30;8.32;;;;;;;9.40;100.00;102241.59;4989211;28;20050;-75
2022/10/03 04:33:13;;;;;;;22.80;7.72;;;;;;;9.45;100.00;102237.78;5020833;28;20094;-75
2022/10/03 04:35:43;;;;;;;24.67;8.60;;;;;;;9.49;100.00;102244.22;5027432;28;20103;-76
2022/10/03 04:38:15;;;;;;;20.80;7.45;;;;;;;9.50;100.00;102235.56;5025233;28;20537;-74
2022/10/03 04:41:12;;;;;;;22.45;9.50;;;;;;;9.51;100.00;102239.13;5025595;28;20746;-76
2022/10/03 04:43:59;;;;;;;27.45;8.15;;;;;;;9.57;100.00;102243.22;5020599;28;20049;-76
2022/10/03 04:46:38;;;;;;;25.23;8.60;;;;;;;9.64;100.00;102241.47;5016254;28;20061;-77
2022/10/03 04:49:42;;;;;;;26.33;9.27;;;;;;;9.72;100.00;102243.25;5020625;28;20049;-76
2022/10/03 04:52:18;;;;;;;24.08;9.45;;;;;;;9.80;100.00;102247.03;5018584;28;20100;-75
2022/10/03 04:55:03;;;;;;;21.88;9.35;;;;;;;9.86;100.00;102245.59;5025661;28;20457;-75
2022/10/03 04:58:15;;;;;;;22.95;8.55;;;;;;;9.85;100.00;102239.25;5024917;28;20057;-77
2022/10/03 05:01:00;;;;;;;23.05;8.90;;;;;;;9.84;100.00;102236.84;5025656;28;20053;-74
2022/10/03 05:03:53;;;;;;;24.27;9.30;;;;;;;9.82;100.00;102245.50;5026730;28;20053;-76
2022/10/03 05:06:41;;;;;;;24.15;9.00;;;;;;;9.80;100.00;102236.78;5027875;28;20099;-73
2022/10/03 05:09:49;;;;;;;23.00;9.55;;;;;;;9.74;100.00;102240.94;5020240;28;20605;-77
2022/10/03 05:12:44;;;;;;;23.40;8.90;;;;;;;9.75;100.00;102250.03;4975658;28;20049;-73
2022/10/03 05:15:16;;;;;;;26.27;9.70;;;;;;;9.73;100.00;102244.88;5025398;28;20048;-75
2022/10/03 05:17:51;;;;;;;29.75;10.10;;;;;;;9.71;100.00;102241.66;5027605;28;20053;-76
2022/10/03 05:20:17;;;;;;;29.42;9.57;;;;;;;9.73;100.00;102244.88;5020896;28;20053;-77
2022/10/03 05:22:49;;;;;;;22.08;9.52;;;;;;;9.68;100.00;102239.59;5026469;28;20049;-77
2022/10/03 05:25:16;;;;;;;31.33;11.27;;;;;;;9.70;100.00;102242.00;5026599;28;20060;-76
2022/10/03 05:27:52;;;;;;;25.38;10.57;;;;;;;9.64;100.00;102237.91;5027957;28;20046;-77
2022/10/03 05:30:41;;;;;;;27.45;10.90;;;;;;;9.65;100.00;102247.81;5029309;28;20080;-75
2022/10/03 05:33:26;;;;;;;22.15;10.35;;;;;;;9.51;100.00;102250.16;5028233;28;20049;-78
2022/10/03 05:36:14;;;;;;;22.17;8.98;;;;;;;9.42;100.00;102257.81;5029123;28;20037;-75
2022/10/03 05:39:02;;;;;;;25.67;10.75;;;;;;;9.45;100.00;102252.38;5027682;28;20063;-78
2022/10/03 05:41:36;;;;;;;28.13;11.15;;;;;;;9.48;100.00;102243.41;5029931;28;20045;-75
2022/10/03 05:44:16;;;;;;;27.08;12.05;;;;;;;9.53;100.00;102253.41;5030480;28;20041;-75
2022/10/03 05:46:54;;;;;;;27.55;10.23;;;;;;;9.45;100.00;102262.66;5022908;28;20406;-75
2022/10/03 05:49:36;;;;;;;31.25;10.90;;;;;;;9.45;100.00;102265.41;5029432;28;20045;-77
2022/10/03 05:52:26;;;;;;;26.58;11.68;;;;;;;9.49;100.00;102271.84;5020993;28;20050;-75
2022/10/03 05:55:06;;;;;;;28.67;12.48;;;;;;;9.50;100.00;102271.50;5029383;28;20061;-74
2022/10/03 05:57:55;;;;;;;33.30;13.25;;;;;;;9.56;100.00;102280.31;5030152;28;20127;-74
2022/10/03 06:00:33;;;;;;;32.22;11.73;;;;;;;9.54;100.00;102286.19;5018757;28;20041;-75
2022/10/03 06:03:36;;;;;;;32.70;14.65;;;;;;;9.53;100.00;102289.31;5027407;28;20502;-74
2022/10/03 06:06:16;;;;;;;29.77;12.18;;;;;;;9.52;100.00;102290.47;5029071;28;20050;-76
2022/10/03 06:09:14;;;;;;;34.53;13.05;;;;;;;9.55;100.00;102287.81;5029712;28;20096;-75
2022/10/03 06:12:00;;;;;;;32.92;14.27;;;;;;;9.66;100.00;102290.88;5028164;28;20046;-76
2022/10/03 06:14:48;;;;;;;32.67;14.80;;;;;;;9.80;100.00;102297.59;5026344;28;20045;-77
2022/10/03 06:17:17;;;;;;;35.60;14.00;;;;;;;9.90;100.00;102297.06;5026646;28;20091;-76
2022/10/03 06:19:53;;;;;;;30.65;13.32;;;;;;;9.95;100.00;102302.34;5030262;28;20045;-75
2022/10/03 06:22:31;;;;;;;;;;;;;;;9.99;100.00;102303.22;5027480;28;20107;-75
2022/10/03 06:25:20;;;;;;;39.75;14.60;;;;;;;10.01;100.00;102298.16;5028474;28;19917;-78
2022/10/03 06:27:56;;;;;;;34.92;14.13;;;;;;;10.06;100.00;102306.22;5028147;28;20071;-75
2022/10/03 06:30:40;;;;;;;27.85;11.82;;;;;;;10.04;100.00;102297.44;5029570;28;20041;-76
2022/10/03 06:33:10;;;;;;;35.08;14.65;;;;;;;10.05;100.00;102293.50;5028606;28;20050;-74
2022/10/03 06:36:20;;;;;;;36.13;14.55;;;;;;;10.17;100.00;102300.97;5026219;28;20540;-76
2022/10/03 06:39:05;;;;;;;33.28;15.02;;;;;;;10.24;100.00;102306.66;5029668;28;20053;-75
2022/10/03 06:41:38;;;;;;;38.15;15.68;;;;;;;10.35;100.00;102314.09;5023281;28;20054;-76
2022/10/03 06:44:11;;;;;;;34.78;15.25;;;;;;;10.45;100.00;102305.25;5019128;28;20068;-75
2022/10/03 06:46:51;;;;;;;35.88;15.95;;;;;;;10.57;100.00;102312.66;5029546;28;20502;-75
2022/10/03 06:49:40;;;;;;;35.28;15.60;;;;;;;10.65;100.00;102294.22;5028130;28;20449;-77
2022/10/03 06:52:19;;;;;;;28.25;15.90;;;;;;;10.80;100.00;102302.50;5014480;28;20041;-75
2022/10/03 06:55:04;;;;;;;34.58;15.05;;;;;;;10.91;100.00;102311.06;5029331;28;20429;-77
2022/10/03 06:57:58;;;;;;;46.17;15.17;;;;;;;11.03;100.00;102306.19;5029573;28;20123;-77
2022/10/03 07:00:52;;;;;;;30.60;13.32;;;;;;;11.08;100.00;102316.19;5017083;28;20049;-76
2022/10/03 07:03:55;;;;;;;31.33;11.15;;;;;;;11.10;100.00;102314.66;5029734;28;20055;-77
2022/10/03 07:06:40;;;;;;;27.52;10.38;;;;;;;11.13;100.00;102313.94;5027239;28;20045;-75
2022/10/03 07:09:44;;;;;;;34.08;12.27;;;;;;;11.29;100.00;102316.66;5028669;28;20045;-75
2022/10/03 07:12:35;;;;;;;29.52;11.70;;;;;;;11.36;100.00;102317.59;5023040;28;20053;-75
2022/10/03 07:15:32;;;;;;;36.83;11.90;;;;;;;11.36;100.00;102320.38;5026620;28;20053;-75
2022/10/03 07:18:28;;;;;;;25.75;11.23;;;;;;;11.32;100.00;102316.72;5004210;28;20089;-75
2022/10/03 07:21:31;;;;;;;25.98;11.98;;;;;;;11.45;100.00;102329.28;5028043;28;20180;-75
2022/10/03 07:24:27;;;;;;;26.45;12.73;;;;;;;11.46;100.00;102338.38;5026766;28;20560;-75
2022/10/03 07:27:41;;;;;;;25.55;9.63;;;;;;;11.48;100.00;102339.63;5012009;28;20461;-75
2022/10/03 07:30:16;;;;;;;23.25;8.75;;;;;;;11.46;100.00;102336.44;4983024;28;20487;-73
2022/10/03 07:33:05;;;;;;;37.05;14.70;;;;;;;11.62;100.00;102333.59;5026555;28;20658;-73
2022/10/03 07:39:33;;;;;;;28.45;12.70;;;;;;;11.66;100.00;102334.47;5024698;28;20057;-73
2022/10/03 07:42:11;;;;;;;26.13;10.82;;;;;;;11.75;100.00;102333.06;4927442;29;20043;-71
2022/10/03 07:44:52;;;;;;;37.67;13.95;;;;;;;11.89;100.00;102344.47;4941121;28;20051;-73
2022/10/03 07:47:52;;;;;;;36.22;14.15;;;;;;;11.97;100.00;102345.38;5004129;28;20045;-72
2022/10/03 07:50:25;;;;;;;6.32;2.33;;;;;;;11.98;100.00;102350.56;5026341;28;20103;-72
2022/10/03 07:53:14;;;;;;;7.07;3.00;;;;;;;12.07;100.00;102350.34;5027370;28;20060;-72
2022/10/03 07:56:36;;;;;;;11.30;5.57;;;;;;;12.12;100.00;102353.59;5028020;28;20052;-72
2022/10/03 07:59:32;;;;;;;18.08;4.20;;;;;;;12.23;100.00;102360.16;4918249;29;20070;-72
2022/10/03 08:02:17;;;;;;;15.45;6.03;;;;;;;12.34;100.00;102365.91;5019033;28;20152;-71
2022/10/03 08:04:54;;;;;;;19.35;5.80;;;;;;;12.39;100.00;102363.63;5025569;28;20055;-72
2022/10/03 08:07:52;;;;;;;19.27;7.47;;;;;;;12.53;100.00;102368.63;5027269;28;20052;-73
2022/10/03 08:10:49;;;;;;;21.35;7.65;;;;;;;12.61;100.00;102368.38;5022380;28;20494;-71
2022/10/03 08:13:52;;;;;;;27.80;10.48;;;;;;;12.69;100.00;102367.31;5026787;28;20053;-73
2022/10/03 08:16:41;;;;;;;31.08;12.45;;;;;;;12.77;100.00;102376.56;5019010;28;20049;-74
2022/10/03 08:19:32;;;;;;;24.88;10.20;;;;;;;13.02;100.00;102375.81;5026675;28;20072;-71
2022/10/03 08:22:07;;;;;;;23.77;10.95;;;;;;;12.98;100.00;102374.97;5020359;28;20068;-71
2022/10/03 08:24:57;;;;;;;33.13;11.25;;;;;;;13.09;100.00;102374.31;5027750;28;20107;-71
2022/10/03 08:27:34;;;;;;;34.38;12.93;;;;;;;13.33;100.00;102382.22;5019992;28;20647;-73
2022/10/03 08:30:28;;;;;;;30.20;11.23;;;;;;;13.45;100.00;102384.75;5019540;28;20426;-70
2022/10/03 08:33:03;;;;;;;27.65;10.93;;;;;;;13.59;100.00;102380.16;5019763;28;20049;-71
2022/10/03 08:35:58;;;;;;;30.02;10.45;;;;;;;13.66;100.00;102383.03;5018905;28;20050;-73
2022/10/03 08:39:06;;;;;;;18.87;5.40;;;;;;;13.66;100.00;102382.22;5021273;28;20056;-72
2022/10/03 08:42:06;;;;;;;32.75;10.13;;;;;;;14.04;100.00;102385.47;5012096;28;20042;-71
2022/10/03 08:44:41;;;;;;;36.55;11.50;;;;;;;14.27;100.00;102383.38;5025268;28;20060;-73
2022/10/03 08:47:14;;;;;;;31.38;11.27;;;;;;;14.58;100.00;102380.09;5027162;28;20669;-73
2022/10/03 08:50:18;;;;;;;21.70;9.85;;;;;;;14.72;100.00;102388.56;5027936;28;20457;-73
2022/10/03 08:53:15;;;;;;;31.58;9.68;;;;;;;14.97;100.00;102388.78;5023089;28;20057;-73
2022/10/03 08:55:54;;;;;;;24.92;8.75;;;;;;;15.06;100.00;102394.81;5025648;28;20053;-71
2022/10/03 08:58:38;;;;;;;24.10;9.35;;;;;;;14.99;100.00;102386.41;5025694;28;20049;-71
2022/10/03 09:01:28;;;;;;;25.60;9.82;;;;;;;15.10;100.00;102390.06;5028205;28;20048;-71
2022/10/03 09:03:57;;;;;;;25.25;4.75;;;;;;;14.97;100.00;102391.56;5029609;28;20053;-74
2022/10/03 09:06:48;;;;;;;27.50;8.60;;;;;;;15.02;100.00;102388.44;5031368;28;20099;-75
2022/10/03 09:09:56;;;;;;;28.60;11.43;;;;;;;15.11;100.00;102384.09;5025227;28;20104;-74
2022/10/03 09:12:42;;;;;;;10.90;4.20;;;;;;;15.14;100.00;102394.47;5024705;28;20103;-74
2022/10/03 09:15:18;;;;;;;27.58;8.63;;;;;;;15.28;100.00;102391.78;5030660;28;20053;-71
2022/10/03 09:18:07;;;;;;;20.73;8.20;;;;;;;15.44;100.00;102397.09;5030196;28;20053;-72
2022/10/03 09:21:11;;;;;;;24.38;8.70;;;;;;;15.55;100.00;102389.56;5027819;28;20479;-71
2022/10/03 09:24:25;;;;;;;26.10;7.55;;;;;;;15.55;100.00;102395.13;5025967;28;20053;-73
2022/10/03 09:27:13;;;;;;;19.77;6.95;;;;;;;15.65;100.00;102393.59;5026179;28;20061;-74
2022/10/03 09:30:19;;;;;;;20.00;8.10;;;;;;;15.65;100.00;102393.59;5024203;28;20422;-74
2022/10/03 09:33:06;;;;;;;24.80;7.28;;;;;;;15.71;100.00;102397.59;4993099;28;20497;-74
2022/10/03 09:35:45;;;;;;;19.25;6.93;;;;;;;15.73;100.00;102395.22;5032174;28;20057;-75
2022/10/03 09:38:30;;;;;;;19.25;7.43;;;;;;;15.79;100.00;102390.88;5019605;28;20046;-73
2022/10/03 09:41:30;;;;;;;24.67;7.38;;;;;;;15.80;100.00;102381.31;5019917;28;20049;-75
2022/10/03 09:44:09;;;;;;;20.98;7.10;;;;;;;15.79;100.00;102374.13;5020727;28;20056;-73
2022/10/03 09:50:11;;;;;;;23.30;7.97;;;;;;;16.15;100.00;102378.59;5022521;28;20498;-72
2022/10/03 09:53:01;;;;;;;21.27;8.35;;;;;;;16.48;100.00;102375.50;5028266;28;20050;-72
2022/10/03 09:55:50;;;;;;;15.65;5.35;;;;;;;16.50;100.00;102376.69;5026162;28;20063;-71
2022/10/03 09:58:54;;;;;;;14.68;3.78;;;;;;;16.56;100.00;102371.50;5018904;28;20192;-73
2022/10/03 10:01:33;;;;;;;20.80;6.63;;;;;;;17.12;100.00;102369.50;5018168;28;20430;-73
2022/10/03 10:04:11;;;;;;;21.50;7.68;;;;;;;17.57;100.00;102367.78;5009556;28;20049;-72
2022/10/03 10:06:50;;;;;;;17.38;5.97;;;;;;;17.69;100.00;102368.13;5039021;28;20059;-73
2022/10/03 10:09:38;;;;;;;22.13;6.22;;;;;;;17.67;100.00;102372.56;5020372;28;20579;-73
2022/10/03 10:12:16;;;;;;;21.58;7.53;;;;;;;17.75;100.00;102360.91;5034606;28;20064;-75
2022/10/03 10:15:05;;;;;;;22.83;6.18;;;;;;;17.75;100.00;102360.09;5021829;28;20104;-75
2022/10/03 10:17:37;;;;;;;21.80;5.90;;;;;;;17.77;100.00;102364.13;5022727;28;20706;-72
2022/10/03 10:20:31;;;;;;;19.80;4.88;;;;;;;17.80;100.00;102363.31;5021648;28;20045;-73
2022/10/03 10:23:30;;;;;;;17.23;5.38;;;;;;;17.83;100.00;102356.88;5022617;28;20421;-71
2022/10/03 10:26:16;;;;;;;19.83;4.90;;;;;;;17.73;100.00;102351.34;5028548;28;20060;-73
2022/10/03 10:28:54;;;;;;;19.17;4.07;;;;;;;17.44;100.00;102355.44;5025173;28;20069;-73
2022/10/03 10:31:58;;;;;;;19.70;4.03;;;;;;;17.54;100.00;102354.59;5027441;28;20037;-71
2022/10/03 10:34:37;;;;;;;18.02;3.10;;;;;;;17.90;100.00;102345.66;5022840;28;20057;-71
2022/10/03 10:37:25;;;;;;;15.43;2.60;;;;;;;18.09;100.00;102341.50;5026229;28;20425;-69
2022/10/03 10:39:52;;;;;;;9.40;2.03;;;;;;;18.05;100.00;102346.34;5029106;28;20057;-70
2022/10/03 10:42:46;;;;;;;14.98;3.05;;;;;;;18.02;100.00;102345.16;5030999;28;20054;-71
2022/10/03 10:45:35;;;;;;;11.02;2.72;;;;;;;18.09;100.00;102343.53;5020526;28;20111;-72
2022/10/03 10:48:01;;;;;;;17.60;2.58;;;;;;;17.99;100.00;102339.59;5020106;28;20060;-71
2022/10/03 10:50:49;;;;;;;13.55;2.22;;;;;;;18.07;100.00;102343.13;5029155;28;20069;-72
2022/10/03 10:53:47;;;;;;;18.38;2.30;;;;;;;18.33;100.00;102345.38;5026737;28;20057;-73
2022/10/03 10:56:26;;;;;;;12.45;2.53;;;;;;;18.24;98.91;102347.81;5024701;28;20049;-72
2022/10/03 10:59:21;;;;;;;11.30;1.42;;;;;;;17.98;94.64;102349.19;5025240;28;20506;-72
2022/10/03 11:02:12;;;;;;;14.07;1.65;;;;;;;18.13;98.77;102344.31;5032070;28;20401;-77
2022/10/03 11:05:06;;;;;;;5.80;1.20;;;;;;;18.37;95.11;102346.16;5021357;28;20049;-74
2022/10/03 11:07:55;;;;;;;9.15;1.20;;;;;;;18.55;93.00;102338.41;5021750;28;20050;-76
2022/10/03 11:10:30;;;;;;;8.70;1.50;;;;;;;18.60;90.24;102329.56;5031652;28;20049;-73
2022/10/03 11:13:23;;;;;;;12.38;1.67;;;;;;;19.08;88.77;102328.31;5043911;28;20437;-72
2022/10/03 11:16:13;;;;;;;10.48;1.67;;;;;;;19.31;86.15;102334.06;5028097;28;20049;-73
2022/10/03 11:18:58;;;;;;;6.60;1.30;;;;;;;19.31;86.94;102331.25;5025598;28;20624;-73
2022/10/03 11:22:04;;;;;;;13.25;2.83;;;;;;;19.67;86.89;102324.00;5029928;28;20049;-75
2022/10/03 11:24:57;;;;;;;10.27;1.45;;;;;;;19.77;80.13;102319.44;5025812;28;20053;-74
2022/10/03 11:27:46;;;;;;;7.10;1.23;;;;;;;20.08;79.67;102321.81;5026717;28;20056;-73
2022/10/03 11:30:31;;;;;;;11.45;1.77;;;;;;;20.18;79.88;102328.50;5019909;28;20045;-74
2022/10/03 11:33:00;;;;;;;11.88;1.88;;;;;;;20.69;81.48;102321.66;5033746;28;20048;-74
2022/10/03 11:35:54;;;;;;;9.52;1.60;;;;;;;21.04;76.29;102326.69;5036067;28;20049;-75
2022/10/03 11:38:24;;;;;;;10.82;1.20;;;;;;;21.20;72.59;102319.13;5020389;28;20080;-70
2022/10/03 11:41:11;;;;;;;6.70;1.27;;;;;;;20.90;66.90;102316.47;5020530;28;20053;-70
2022/10/03 11:43:53;;;;;;;8.45;1.88;;;;;;;21.10;70.63;102319.34;5027702;28;20053;-72
2022/10/03 11:46:51;;;;;;;7.60;2.13;;;;;;;21.35;72.97;102314.78;5032119;28;20494;-72
2022/10/03 11:49:33;;;;;;;12.60;3.10;;;;;;;21.25;74.50;102315.00;5027727;28;20045;-71
2022/10/03 11:52:40;;;;;;;8.93;1.77;;;;;;;21.24;66.23;102325.50;5021521;28;20055;-72
2022/10/03 11:55:17;;;;;;;6.57;1.30;;;;;;;20.80;68.15;102322.28;5011096;28;20443;-71
2022/10/03 11:57:53;;;;;;;9.10;1.27;;;;;;;20.82;73.83;102326.25;5026333;28;20697;-70
2022/10/03 12:00:21;;;;;;;12.50;1.88;;;;;;;20.67;74.57;102324.09;5029487;28;20057;-71
2022/10/03 12:03:12;;;;;;;7.78;1.30;;;;;;;20.59;73.24;102323.44;5030988;28;20494;-73
2022/10/03 12:09:05;;;;;;;8.30;2.40;;;;;;;21.09;71.92;102309.31;5026269;28;20414;-72
2022/10/03 12:12:16;;;;;;;10.25;2.13;;;;;;;21.58;70.29;102322.38;5024834;28;20107;-71
2022/10/03 12:14:46;;;;;;;8.38;1.52;;;;;;;21.32;69.38;102312.84;5014174;28;20083;-71
2022/10/03 12:17:25;;;;;;;7.75;1.63;;;;;;;21.26;70.57;102319.44;5030877;28;20731;-72
2022/10/03 12:20:23;;;;;;;9.05;1.50;;;;;;;21.08;68.80;102316.94;5028312;28;20052;-71
2022/10/03 12:23:13;;;;;;;8.00;1.50;;;;;;;21.00;70.51;102311.88;5026916;28;20053;-72
2022/10/03 12:25:44;;;;;;;11.43;1.35;;;;;;;21.28;71.23;102312.13;5023046;28;20052;-71
2022/10/03 12:28:23;;;;;;;8.05;1.60;;;;;;;21.67;69.80;102308.50;5023994;28;20045;-73
2022/10/03 12:31:03;;;;;;;3.80;1.20;;;;;;;21.29;66.29;102307.31;5027447;28;20419;-70
2022/10/03 12:33:56;;;;;;;11.88;1.27;;;;;;;20.90;71.06;102304.41;5027520;28;20096;-73
2022/10/03 12:36:30;;;;;;;7.28;1.50;;;;;;;20.73;70.67;102305.53;5034584;28;20053;-73
2022/10/03 12:39:15;;;;;;;13.32;1.40;;;;;;;19.91;72.46;102300.38;5030141;28;20119;-71
2022/10/03 12:41:49;;;;;;;11.57;1.98;;;;;;;19.70;74.77;102299.88;5033377;28;20057;-72
2022/10/03 12:44:26;;;;;;;9.73;2.25;;;;;;;19.66;77.28;102294.34;5031767;28;20433;-71
2022/10/03 12:47:20;;;;;;;6.57;1.55;;;;;;;19.56;78.09;102300.88;5037913;28;20045;-72
2022/10/03 12:50:30;;;;;;;9.52;1.75;;;;;;;19.96;81.08;102293.50;5026960;28;20144;-71